Time;durP1;ratioP1;P1;durP2;ratioP2;P2;SDS_P1;SDS_P2;PMS_P1;PMS_P2;Temp;Humidity;BMP_temperature;BMP_pressure;BME280_temperature;BME280_humidity;BME280_pressure;Samples;Min_cycle;Max_cycle;Signal;HPM_P1;HPM_P2
2021/09/02 00:01:57;;;;;;;14.68;8.15;;;;;;;10.72;95.22;99399.81;5025336;28;20026;-69
2021/09/02 00:04:23;;;;;;;15.93;8.82;;;;;;;10.73;95.01;99403.31;5007461;28;20240;-69
2021/09/02 00:06:49;;;;;;;19.52;9.10;;;;;;;10.60;94.92;99394.63;5025241;28;20068;-69
2021/09/02 00:09:15;;;;;;;15.25;9.07;;;;;;;10.58;95.28;99395.53;5025270;28;20026;-69
2021/09/02 00:11:40;;;;;;;17.73;8.98;;;;;;;10.63;95.69;99393.72;5025159;28;20030;-69
2021/09/02 00:14:06;;;;;;;13.20;7.65;;;;;;;10.68;95.42;99391.94;5024944;28;20064;-69
2021/09/02 00:16:31;;;;;;;15.60;8.95;;;;;;;10.66;95.31;99398.97;5007512;28;20026;-69
2021/09/02 00:18:56;;;;;;;14.18;9.20;;;;;;;10.62;95.15;99392.00;5025063;28;20025;-69
2021/09/02 00:21:22;;;;;;;13.95;8.15;;;;;;;10.66;95.46;99394.59;5025022;28;20194;-69
2021/09/02 00:23:47;;;;;;;19.33;9.55;;;;;;;10.62;95.56;99392.88;5007273;28;20072;-69
2021/09/02 00:26:13;;;;;;;13.40;8.07;;;;;;;10.62;95.32;99389.34;5024920;28;20216;-69
2021/09/02 00:28:39;;;;;;;18.33;9.30;;;;;;;10.58;95.31;99387.63;5007327;28;20255;-69
2021/09/02 00:31:04;;;;;;;15.02;9.38;;;;;;;10.58;95.68;99391.16;5024339;28;20036;-69
2021/09/02 00:33:30;;;;;;;20.02;10.70;;;;;;;10.47;96.02;99386.81;5024208;28;20026;-69
2021/09/02 00:35:55;;;;;;;18.08;9.55;;;;;;;10.45;96.06;99383.34;5007253;28;20317;-69
2021/09/02 00:38:20;;;;;;;15.07;9.50;;;;;;;10.41;96.30;99379.00;5024655;28;20313;-69
2021/09/02 00:40:46;;;;;;;17.63;9.57;;;;;;;10.48;95.92;99378.06;5024675;28;20034;-69
2021/09/02 00:43:11;;;;;;;17.17;9.30;;;;;;;10.40;96.01;99378.13;5024304;28;20075;-69
2021/09/02 00:45:37;;;;;;;14.57;9.07;;;;;;;10.27;95.78;99383.47;5024567;28;20029;-69
2021/09/02 00:48:02;;;;;;;15.60;8.60;;;;;;;10.22;95.55;99380.00;5024570;28;20216;-69
2021/09/02 00:50:30;;;;;;;14.68;9.20;;;;;;;10.15;95.54;99373.00;5024505;28;20048;-69
2021/09/02 00:53:00;;;;;;;13.07;8.40;;;;;;;10.09;95.46;99367.78;5024285;28;20068;-69
2021/09/02 00:55:26;;;;;;;18.38;9.95;;;;;;;10.14;95.75;99374.78;5024451;28;20030;-69
2021/09/02 00:57:51;;;;;;;16.58;9.70;;;;;;;10.15;96.39;99378.25;5024630;28;20072;-68
2021/09/02 01:00:18;;;;;;;16.50;9.20;;;;;;;10.19;96.53;99370.34;5024353;28;20049;-68
2021/09/02 01:02:45;;;;;;;20.83;9.27;;;;;;;10.26;96.63;99376.47;5024014;28;20045;-68
2021/09/02 01:05:15;;;;;;;16.08;8.90;;;;;;;10.22;96.68;99377.38;5024180;28;20057;-68
2021/09/02 01:07:40;;;;;;;17.15;10.20;;;;;;;10.22;96.91;99370.34;5024248;28;20276;-68
2021/09/02 01:10:07;;;;;;;17.05;9.85;;;;;;;10.20;96.44;99371.22;5024249;28;20018;-68
2021/09/02 01:12:37;;;;;;;17.20;9.90;;;;;;;10.18;96.93;99371.25;5024198;28;20021;-68
2021/09/02 01:15:26;;;;;;;15.00;8.35;;;;;;;10.15;95.68;99368.63;5024147;28;20049;-68
2021/09/02 01:17:55;;;;;;;15.02;8.75;;;;;;;9.99;95.47;99360.78;5024184;28;20022;-68
2021/09/02 01:20:23;;;;;;;15.15;8.63;;;;;;;9.96;95.64;99360.81;5024165;28;20048;-68
2021/09/02 01:22:51;;;;;;;14.65;9.10;;;;;;;9.96;95.81;99355.53;5023948;28;20029;-68
2021/09/02 01:25:19;;;;;;;17.15;9.85;;;;;;;9.90;96.23;99355.63;5024041;28;20093;-68
2021/09/02 01:27:48;;;;;;;17.67;9.65;;;;;;;9.95;96.08;99359.06;5022810;28;20017;-68
2021/09/02 01:30:14;;;;;;;16.88;7.97;;;;;;;9.84;95.21;99356.50;5024024;28;20025;-68
2021/09/02 01:32:42;;;;;;;13.93;7.85;;;;;;;9.85;95.15;99360.00;5023942;28;20026;-68
2021/09/02 01:35:09;;;;;;;20.80;9.93;;;;;;;9.82;94.68;99357.38;5023625;28;20029;-68
2021/09/02 01:37:41;;;;;;;13.60;8.30;;;;;;;9.73;95.23;99354.78;5023822;28;20025;-68
2021/09/02 01:40:09;;;;;;;19.90;9.50;;;;;;;9.82;95.57;99354.75;5006511;28;20045;-68
2021/09/02 01:42:35;;;;;;;20.60;9.23;;;;;;;9.77;95.67;99348.63;5023897;28;20025;-68
2021/09/02 01:45:01;;;;;;;17.58;9.20;;;;;;;9.76;95.92;99344.28;5027958;28;20025;-68
2021/09/02 01:47:28;;;;;;;17.48;9.50;;;;;;;9.69;95.66;99346.06;5027872;28;20022;-68
2021/09/02 01:49:54;;;;;;;12.57;8.20;;;;;;;9.65;95.46;99349.56;5027860;28;20244;-68
2021/09/02 01:52:21;;;;;;;15.55;9.65;;;;;;;9.68;96.16;99348.72;5027617;28;20026;-68
2021/09/02 01:54:47;;;;;;;17.63;9.00;;;;;;;9.69;96.12;99345.19;5027594;28;20028;-68
2021/09/02 01:57:15;;;;;;;12.38;8.07;;;;;;;9.65;94.98;99348.72;5027664;28;20059;-68
2021/09/02 01:59:41;;;;;;;16.73;8.32;;;;;;;9.67;95.03;99349.56;5027630;28;20033;-68
2021/09/02 02:02:07;;;;;;;11.48;7.60;;;;;;;9.55;94.84;99347.88;5027427;28;20033;-68
2021/09/02 02:04:33;;;;;;;12.90;7.07;;;;;;;9.59;94.39;99344.34;5027359;28;20049;-68
2021/09/02 02:06:59;;;;;;;15.77;8.32;;;;;;;9.59;94.85;99343.47;5027528;28;20089;-68
2021/09/02 02:09:24;;;;;;;13.70;8.00;;;;;;;9.52;94.63;99341.78;5009979;28;20022;-68
2021/09/02 02:11:49;;;;;;;20.13;9.88;;;;;;;9.53;95.75;99343.50;5027228;28;20022;-68
2021/09/02 02:14:15;;;;;;;14.93;9.18;;;;;;;9.49;95.83;99341.78;5027354;28;20052;-68
2021/09/02 02:16:40;;;;;;;15.07;8.57;;;;;;;9.44;95.43;99338.28;5027242;28;20025;-68
2021/09/02 02:19:05;;;;;;;17.33;9.25;;;;;;;9.43;94.91;99347.91;5027300;28;20098;-68
2021/09/02 02:21:31;;;;;;;15.00;7.70;;;;;;;9.43;94.73;99341.78;5027084;28;20221;-68
2021/09/02 02:23:56;;;;;;;14.85;8.18;;;;;;;9.34;94.60;99344.44;5027195;28;20026;-68
2021/09/02 02:26:22;;;;;;;14.88;8.20;;;;;;;9.21;95.10;99345.38;5027186;28;20025;-68
2021/09/02 02:28:47;;;;;;;14.30;9.05;;;;;;;9.19;95.94;99341.84;5027134;28;20033;-68
2021/09/02 02:31:12;;;;;;;17.90;9.02;;;;;;;9.22;95.56;99341.84;5026930;28;20018;-68
2021/09/02 02:33:38;;;;;;;14.85;8.23;;;;;;;9.28;95.97;99341.84;5026935;28;20040;-68
2021/09/02 02:36:03;;;;;;;15.15;8.15;;;;;;;9.10;95.50;99329.63;5027090;28;20092;-68
2021/09/02 02:38:30;;;;;;;13.10;7.60;;;;;;;9.07;95.27;99331.38;5026866;28;20060;-68
2021/09/02 02:40:55;;;;;;;12.25;7.30;;;;;;;9.07;95.47;99331.38;5026887;28;20097;-68
2021/09/02 02:43:22;;;;;;;11.30;7.82;;;;;;;9.12;96.02;99335.75;5026632;28;20029;-68
2021/09/02 02:45:47;;;;;;;17.52;9.18;;;;;;;9.03;96.41;99325.28;5026834;28;20022;-68
2021/09/02 02:48:12;;;;;;;13.00;7.90;;;;;;;9.14;96.47;99325.25;5026774;28;20136;-68
2021/09/02 02:50:38;;;;;;;13.57;8.02;;;;;;;9.24;95.98;99334.84;5026887;28;20257;-68
2021/09/02 02:53:03;;;;;;;16.23;9.00;;;;;;;9.07;96.26;99326.13;5026456;28;20029;-68
2021/09/02 02:55:29;;;;;;;23.45;8.88;;;;;;;9.06;95.99;99324.38;5025566;28;20398;-68
2021/09/02 02:57:55;;;;;;;15.77;8.27;;;;;;;9.13;96.40;99327.00;5026702;28;20217;-68
2021/09/02 03:00:20;;;;;;;16.48;9.43;;;;;;;9.01;96.05;99327.03;5026340;28;20018;-68
2021/09/02 03:02:46;;;;;;;19.90;9.52;;;;;;;9.02;95.94;99330.53;5026232;28;20045;-68
2021/09/02 03:05:12;;;;;;;18.38;8.93;;;;;;;9.09;95.96;99329.63;5026490;28;20321;-68
2021/09/02 03:07:38;;;;;;;12.27;7.75;;;;;;;9.09;95.41;99334.88;5026408;28;20025;-68
2021/09/02 03:10:05;;;;;;;15.27;8.18;;;;;;;9.07;95.34;99334.00;5026181;28;20085;-68
2021/09/02 03:12:31;;;;;;;14.27;8.13;;;;;;;8.93;95.44;99327.91;5026254;28;20205;-68
2021/09/02 03:14:56;;;;;;;13.07;8.63;;;;;;;8.95;94.94;99327.03;5026253;28;20043;-68
2021/09/02 03:17:22;;;;;;;13.85;7.35;;;;;;;9.03;95.44;99324.41;5026147;28;20021;-68
2021/09/02 03:19:47;;;;;;;16.08;8.20;;;;;;;9.03;95.17;99329.66;5026035;28;20093;-68
2021/09/02 03:22:12;;;;;;;16.85;8.55;;;;;;;9.04;94.70;99326.13;5008591;28;20045;-68
2021/09/02 03:24:38;;;;;;;14.63;8.77;;;;;;;9.02;95.49;99327.91;5026059;28;20341;-68
2021/09/02 03:27:04;;;;;;;25.25;9.70;;;;;;;9.11;95.59;99322.63;5026017;28;20067;-68
2021/09/02 03:29:29;;;;;;;17.42;9.63;;;;;;;9.11;95.79;99327.88;5025808;28;20093;-68
2021/09/02 03:31:54;;;;;;;20.40;10.27;;;;;;;9.17;95.57;99322.63;5025964;28;20100;-68
2021/09/02 03:34:20;;;;;;;21.90;10.15;;;;;;;9.22;96.34;99326.09;5025881;28;20036;-68
2021/09/02 03:36:46;;;;;;;15.05;9.48;;;;;;;9.27;96.55;99319.09;5025750;28;20013;-68
2021/09/02 03:39:12;;;;;;;13.90;8.70;;;;;;;9.32;95.94;99327.81;5025508;28;20025;-68
2021/09/02 03:41:39;;;;;;;16.35;9.30;;;;;;;9.21;95.78;99324.34;5025769;28;20096;-68
2021/09/02 03:44:05;;;;;;;19.17;10.63;;;;;;;9.26;95.82;99327.81;5025741;28;20025;-68
2021/09/02 03:46:30;;;;;;;18.45;10.35;;;;;;;9.21;95.92;99321.72;5025462;28;20014;-68
2021/09/02 03:48:56;;;;;;;23.40;9.95;;;;;;;9.21;96.65;99319.09;5025622;28;20021;-68
2021/09/02 03:51:21;;;;;;;29.40;11.80;;;;;;;9.29;96.75;99322.56;5025540;28;20018;-68
2021/09/02 03:53:46;;;;;;;21.60;9.85;;;;;;;9.22;96.26;99326.09;5025538;28;20022;-68
2021/09/02 03:56:12;;;;;;;19.25;9.55;;;;;;;9.27;96.31;99329.59;5025306;28;20018;-68
2021/09/02 03:58:37;;;;;;;21.65;10.77;;;;;;;9.35;96.52;99325.16;5025373;28;20089;-68
2021/09/02 04:01:02;;;;;;;26.20;11.45;;;;;;;9.39;97.09;99319.00;5025155;28;20137;-68
2021/09/02 04:03:28;;;;;;;19.48;10.65;;;;;;;9.50;96.51;99318.13;5025088;28;20281;-68
2021/09/02 04:05:53;;;;;;;26.13;13.63;;;;;;;9.55;96.95;99310.22;5024902;28;20032;-68
2021/09/02 04:08:19;;;;;;;19.38;10.90;;;;;;;9.46;96.80;99315.50;5025279;28;20018;-68
2021/09/02 04:10:44;;;;;;;25.35;12.07;;;;;;;9.49;97.56;99315.50;5024994;28;20101;-68
2021/09/02 04:13:10;;;;;;;23.98;10.80;;;;;;;9.52;97.02;99311.09;5025090;28;20053;-68
2021/09/02 04:15:36;;;;;;;26.52;10.77;;;;;;;9.49;97.02;99315.50;5025142;28;20081;-68
2021/09/02 04:18:01;;;;;;;16.15;9.70;;;;;;;9.51;95.72;99309.34;5025038;28;20029;-68
2021/09/02 04:20:27;;;;;;;18.45;8.20;;;;;;;9.44;95.24;99312.00;5024887;28;20244;-68
2021/09/02 04:22:52;;;;;;;14.85;7.70;;;;;;;9.33;93.96;99313.81;5025023;28;20085;-68
2021/09/02 04:25:18;;;;;;;14.73;7.90;;;;;;;9.15;94.65;99320.00;5024998;28;20025;-68
2021/09/02 04:27:43;;;;;;;16.77;8.75;;;;;;;9.08;94.45;99317.41;5024896;28;20022;-68
2021/09/02 04:30:09;;;;;;;21.27;10.07;;;;;;;8.98;95.67;99327.03;5024723;28;20022;-68
2021/09/02 04:32:35;;;;;;;20.92;10.70;;;;;;;9.05;97.06;99333.16;5024591;28;20213;-68
2021/09/02 04:35:00;;;;;;;27.73;13.18;;;;;;;9.14;97.60;99323.47;5024560;28;20017;-68
2021/09/02 04:37:26;;;;;;;20.13;11.43;;;;;;;9.26;97.82;99322.56;5024268;28;20025;-68
2021/09/02 04:39:51;;;;;;;24.38;13.55;;;;;;;9.44;98.52;99322.50;5024168;28;20339;-68
2021/09/02 04:42:16;;;;;;;23.98;12.88;;;;;;;9.51;98.16;99325.13;5023862;28;20305;-68
2021/09/02 04:44:42;;;;;;;21.75;10.93;;;;;;;9.36;96.82;99329.56;5024314;28;20033;-68
2021/09/02 04:47:07;;;;;;;19.85;10.50;;;;;;;9.36;96.06;99329.56;5007013;28;20022;-68
2021/09/02 04:49:33;;;;;;;15.90;8.55;;;;;;;9.33;95.82;99329.56;5024641;28;20022;-68
2021/09/02 04:51:58;;;;;;;20.10;10.63;;;;;;;9.31;95.78;99328.69;5024532;28;20049;-68
2021/09/02 04:54:23;;;;;;;14.43;8.18;;;;;;;9.28;94.24;99336.59;5024428;28;20321;-68
2021/09/02 04:56:49;;;;;;;15.93;8.98;;;;;;;9.23;94.08;99327.84;5024417;28;20026;-68
2021/09/02 04:59:14;;;;;;;15.43;9.63;;;;;;;9.17;94.96;99328.72;5024494;28;20021;-68
2021/09/02 05:01:40;;;;;;;22.98;10.73;;;;;;;9.21;96.13;99329.59;5024648;28;20076;-68
2021/09/02 05:04:05;;;;;;;16.80;9.82;;;;;;;9.21;95.82;99329.59;5024176;28;20225;-68
2021/09/02 05:06:31;;;;;;;19.52;10.13;;;;;;;9.17;95.10;99333.13;5024316;28;20220;-68
2021/09/02 05:08:56;;;;;;;19.23;9.05;;;;;;;9.11;94.39;99330.50;5024335;28;20380;-68
2021/09/02 05:11:21;;;;;;;14.63;8.70;;;;;;;9.06;94.05;99340.16;5024281;28;20041;-68
2021/09/02 05:13:47;;;;;;;17.38;8.73;;;;;;;9.05;93.87;99336.63;5024268;28;20021;-68
2021/09/02 05:16:12;;;;;;;17.10;10.00;;;;;;;8.98;95.23;99332.28;5024223;28;20040;-68
2021/09/02 05:18:37;;;;;;;17.73;9.77;;;;;;;8.94;95.74;99330.53;5023523;28;20140;-68
2021/09/02 05:21:03;;;;;;;19.10;9.73;;;;;;;8.95;95.44;99336.69;5024127;28;20048;-68
2021/09/02 05:23:28;;;;;;;26.02;10.43;;;;;;;8.89;96.23;99332.28;5024112;28;20018;-68
2021/09/02 05:25:54;;;;;;;18.55;11.02;;;;;;;8.95;95.89;99331.44;5024085;28;20017;-68
2021/09/02 05:28:19;;;;;;;16.92;9.82;;;;;;;8.97;95.27;99330.53;5024077;28;20269;-68
2021/09/02 05:30:44;;;;;;;27.23;14.00;;;;;;;9.48;97.30;99319.00;5024069;28;20088;-68
2021/09/02 05:33:10;;;;;;;21.95;12.48;;;;;;;10.21;96.83;99330.88;5024027;28;20022;-68
2021/09/02 05:35:35;;;;;;;21.67;10.30;;;;;;;10.66;94.42;99338.41;5024018;28;20038;-68
2021/09/02 05:38:00;;;;;;;15.52;8.35;;;;;;;11.21;91.07;99331.75;5023880;28;20089;-68
2021/09/02 05:40:26;;;;;;;16.42;7.75;;;;;;;11.67;88.81;99332.97;5023991;28;20216;-68
2021/09/02 05:42:51;;;;;;;13.90;7.00;;;;;;;11.97;85.28;99322.03;5023962;28;20060;-68
2021/09/02 05:45:17;;;;;;;12.32;6.88;;;;;;;12.31;84.04;99320.63;5023929;28;20022;-68
2021/09/02 05:47:42;;;;;;;15.75;7.30;;;;;;;12.61;84.88;99322.78;5023891;28;20018;-68
2021/09/02 05:50:08;;;;;;;11.88;6.28;;;;;;;12.88;83.71;99327.59;5023893;28;20089;-68
2021/09/02 05:52:33;;;;;;;10.57;6.10;;;;;;;13.39;81.15;99320.53;5023865;28;20021;-68
2021/09/02 05:54:59;;;;;;;11.57;6.43;;;;;;;13.70;78.82;99326.91;5023837;28;20029;-68
2021/09/02 05:57:24;;;;;;;13.55;6.97;;;;;;;13.91;81.16;99315.00;5023754;28;20022;-68
2021/09/02 05:59:50;;;;;;;14.75;7.07;;;;;;;14.09;78.41;99333.13;5023794;28;20024;-68
2021/09/02 06:02:15;;;;;;;8.07;5.25;;;;;;;14.23;77.76;99325.75;5023731;28;20089;-68
2021/09/02 06:04:41;;;;;;;13.15;6.38;;;;;;;14.48;78.08;99332.25;5023628;28;20060;-68
2021/09/02 06:07:06;;;;;;;16.77;5.78;;;;;;;15.00;76.05;99325.59;5023712;28;20014;-68
2021/09/02 06:09:32;;;;;;;12.60;5.80;;;;;;;15.24;77.10;99324.09;5006221;28;20025;-68
2021/09/02 06:11:57;;;;;;;16.40;6.78;;;;;;;15.54;77.08;99317.09;5023689;28;20034;-68
2021/09/02 06:14:23;;;;;;;10.00;6.60;;;;;;;15.53;79.29;99326.84;5023629;28;20024;-68
2021/09/02 06:16:48;;;;;;;11.02;6.35;;;;;;;16.49;73.68;99329.22;5023605;28;20089;-68
2021/09/02 06:19:13;;;;;;;13.65;6.47;;;;;;;16.61;73.41;99334.16;5006174;28;20257;-68
2021/09/02 06:21:39;;;;;;;12.15;6.90;;;;;;;16.13;75.66;99326.81;5023573;28;20025;-68
2021/09/02 06:24:04;;;;;;;13.82;7.18;;;;;;;16.70;74.23;99328.53;5006073;28;20317;-68
2021/09/02 06:26:30;;;;;;;13.55;6.43;;;;;;;16.77;74.53;99334.53;5023549;28;20021;-68
2021/09/02 06:28:55;;;;;;;16.88;7.78;;;;;;;17.36;74.54;99330.69;5024160;28;20021;-68
2021/09/02 06:31:21;;;;;;;14.02;7.80;;;;;;;17.80;71.44;99327.31;5027078;28;20133;-68
2021/09/02 06:33:46;;;;;;;14.70;7.40;;;;;;;17.93;72.70;99333.03;5027092;28;20041;-68
2021/09/02 06:36:12;;;;;;;14.73;7.63;;;;;;;18.44;70.21;99336.38;5026974;28;20018;-68
2021/09/02 06:38:37;;;;;;;14.93;7.45;;;;;;;18.02;71.12;99335.38;5026883;28;20049;-68
2021/09/02 06:41:03;;;;;;;16.70;7.35;;;;;;;18.89;69.88;99339.88;5026968;28;20317;-68
2021/09/02 06:43:28;;;;;;;11.48;6.60;;;;;;;19.54;67.81;99340.63;5026886;28;20017;-68
2021/09/02 06:45:53;;;;;;;15.20;7.25;;;;;;;19.17;68.19;99335.09;5009337;28;20386;-69
2021/09/02 06:48:19;;;;;;;14.23;7.07;;;;;;;19.74;67.52;99332.56;5026803;28;20018;-69
2021/09/02 06:50:44;;;;;;;13.70;6.68;;;;;;;20.18;65.05;99328.75;5026770;28;20094;-69
2021/09/02 06:53:10;;;;;;;12.65;6.82;;;;;;;20.31;65.21;99327.25;5026767;28;20022;-69
2021/09/02 06:55:35;;;;;;;11.63;6.72;;;;;;;20.57;62.65;99331.34;5026674;28;20320;-67
2021/09/02 06:58:00;;;;;;;11.55;6.88;;;;;;;21.11;61.62;99318.78;5026568;28;20034;-67
2021/09/02 07:00:26;;;;;;;13.70;6.47;;;;;;;21.55;59.56;99323.66;5026618;28;20395;-67
2021/09/02 07:02:51;;;;;;;10.60;6.50;;;;;;;21.83;59.93;99329.34;5026326;28;20116;-67
2021/09/02 07:05:17;;;;;;;15.73;6.90;;;;;;;21.72;59.86;99332.56;5026501;28;20046;-67
2021/09/02 07:07:43;;;;;;;12.13;7.15;;;;;;;21.48;60.44;99327.63;5026431;28;20387;-67
2021/09/02 07:10:09;;;;;;;12.73;7.00;;;;;;;21.75;59.90;99336.91;5026411;28;20017;-67
2021/09/02 07:12:35;;;;;;;13.18;6.72;;;;;;;21.72;59.05;99326.31;5026309;28;20276;-67
2021/09/02 07:15:00;;;;;;;12.23;7.10;;;;;;;21.69;60.02;99337.19;5026298;28;20018;-67
2021/09/02 07:17:26;;;;;;;12.93;6.82;;;;;;;22.15;58.71;99331.97;5026183;28;20060;-67
2021/09/02 07:19:51;;;;;;;12.45;6.47;;;;;;;22.63;58.00;99334.66;5026265;28;20025;-67
2021/09/02 07:22:16;;;;;;;10.60;6.30;;;;;;;22.72;58.14;99331.44;5026165;28;20017;-67
2021/09/02 07:24:42;;;;;;;11.82;7.38;;;;;;;22.32;56.61;99336.41;5026112;28;20025;-67
2021/09/02 07:27:07;;;;;;;12.63;6.85;;;;;;;22.31;58.13;99337.38;5026098;28;20217;-67
2021/09/02 07:29:33;;;;;;;11.13;6.05;;;;;;;22.75;56.53;99338.47;5026033;28;20025;-67
2021/09/02 07:31:58;;;;;;;13.05;6.72;;;;;;;22.50;56.08;99332.75;5025977;28;20018;-67
2021/09/02 07:34:23;;;;;;;11.48;7.25;;;;;;;22.46;55.53;99336.53;5026184;28;20025;-67
2021/09/02 07:36:49;;;;;;;11.68;6.97;;;;;;;23.07;55.49;99335.63;5025796;28;20017;-67
2021/09/02 07:39:15;;;;;;;9.23;5.93;;;;;;;23.15;54.30;99327.13;5025865;28;20026;-67
2021/09/02 07:41:41;;;;;;;9.98;6.35;;;;;;;22.67;56.08;99335.34;5025252;28;20021;-67
2021/09/02 07:44:07;;;;;;;10.35;6.75;;;;;;;22.60;56.01;99336.66;5025767;28;20316;-67
2021/09/02 07:46:32;;;;;;;12.18;6.57;;;;;;;23.28;54.10;99328.16;5025726;28;20052;-67
2021/09/02 07:48:58;;;;;;;9.82;5.97;;;;;;;23.44;55.02;99337.03;5025658;28;20097;-67
2021/09/02 07:51:23;;;;;;;12.73;7.28;;;;;;;23.25;53.94;99328.34;5025648;28;20025;-67
2021/09/02 07:53:49;;;;;;;14.10;6.40;;;;;;;23.38;53.10;99334.69;5025575;28;20093;-67
2021/09/02 07:56:14;;;;;;;11.32;6.40;;;;;;;23.11;53.65;99347.06;5025532;28;20205;-67
2021/09/02 07:58:42;;;;;;;11.95;6.15;;;;;;;23.45;52.96;99341.47;5025433;28;20022;-67
2021/09/02 08:01:11;;;;;;;15.20;6.68;;;;;;;23.29;52.46;99346.03;5025419;28;20088;-67
2021/09/02 08:03:40;;;;;;;11.10;6.20;;;;;;;23.26;53.89;99336.28;5025187;28;20062;-67
2021/09/02 08:06:06;;;;;;;10.63;6.35;;;;;;;23.53;53.27;99344.53;5025605;28;20085;-67
2021/09/02 08:08:32;;;;;;;12.60;6.47;;;;;;;23.29;52.35;99336.13;5025304;28;20068;-67
2021/09/02 08:10:58;;;;;;;12.52;6.03;;;;;;;23.98;51.32;99341.75;5007779;28;20032;-67
2021/09/02 08:13:24;;;;;;;9.40;6.00;;;;;;;23.86;51.81;99347.00;5025213;28;20021;-67
2021/09/02 08:15:49;;;;;;;10.77;5.75;;;;;;;23.96;51.75;99348.19;5025225;28;20026;-67
2021/09/02 08:18:15;;;;;;;10.55;5.65;;;;;;;24.15;51.57;99340.69;5025046;28;20056;-67
2021/09/02 08:20:41;;;;;;;16.90;6.07;;;;;;;24.38;51.88;99345.47;5007558;28;20025;-67
2021/09/02 08:23:06;;;;;;;10.70;6.18;;;;;;;23.79;51.68;99343.81;5025290;28;20186;-67
2021/09/02 08:25:32;;;;;;;12.35;6.05;;;;;;;23.86;51.30;99342.50;5025021;28;20124;-67
2021/09/02 08:27:58;;;;;;;10.07;6.45;;;;;;;24.17;50.46;99345.00;5024945;28;20018;-67
2021/09/02 08:30:25;;;;;;;14.45;6.10;;;;;;;24.48;51.85;99352.88;5024936;28;20018;-67
2021/09/02 08:32:51;;;;;;;10.68;5.68;;;;;;;24.19;50.73;99340.41;5024869;28;20026;-67
2021/09/02 08:35:22;;;;;;;11.98;6.22;;;;;;;23.85;49.91;99346.13;5007297;28;20033;-67
2021/09/02 08:37:49;;;;;;;14.27;5.88;;;;;;;24.56;49.67;99347.88;5024795;28;20036;-67
2021/09/02 08:40:17;;;;;;;11.07;6.22;;;;;;;25.06;48.31;99356.19;5024755;28;20053;-67
2021/09/02 08:42:43;;;;;;;9.27;5.88;;;;;;;24.71;49.18;99354.97;5024713;28;20032;-67
2021/09/02 08:45:09;;;;;;;11.55;5.90;;;;;;;24.59;48.32;99350.38;5024733;28;20030;-67
2021/09/02 08:47:37;;;;;;;12.63;5.88;;;;;;;25.02;47.46;99349.28;5024626;28;20068;-67
2021/09/02 08:50:04;;;;;;;15.55;6.43;;;;;;;24.56;49.09;99345.19;5024596;28;20021;-67
2021/09/02 08:52:30;;;;;;;8.85;6.05;;;;;;;24.45;48.73;99347.69;5023769;28;20026;-67
2021/09/02 08:54:57;;;;;;;12.88;5.88;;;;;;;24.78;48.88;99333.91;5007008;28;20036;-67
2021/09/02 08:57:22;;;;;;;9.10;5.63;;;;;;;24.53;49.38;99340.00;5024468;28;20030;-67
2021/09/02 08:59:48;;;;;;;9.20;5.80;;;;;;;24.75;48.29;99347.56;5024522;28;20080;-67
2021/09/02 09:02:23;;;;;;;9.52;5.85;;;;;;;24.70;48.11;99347.84;5024447;28;20026;-67
2021/09/02 09:05:06;;;;;;;9.55;5.55;;;;;;;25.02;47.97;99333.13;5004721;28;20060;-67
2021/09/02 09:07:34;;;;;;;8.80;5.50;;;;;;;24.68;48.80;99328.25;5004690;28;20026;-67
2021/09/02 09:10:00;;;;;;;9.05;5.55;;;;;;;25.49;47.59;99331.75;5004677;28;20208;-67
2021/09/02 09:12:37;;;;;;;10.75;6.13;;;;;;;25.23;47.64;99329.00;5004648;28;20052;-67
2021/09/02 09:15:06;;;;;;;11.98;5.63;;;;;;;25.32;47.36;99334.75;5004893;28;20093;-67
2021/09/02 09:17:32;;;;;;;10.68;6.15;;;;;;;25.39;45.97;99327.97;5004508;28;20086;-67
2021/09/02 09:19:58;;;;;;;10.68;5.82;;;;;;;25.69;47.86;99328.56;5004595;28;20022;-67
2021/09/02 09:22:28;;;;;;;12.15;5.25;;;;;;;25.25;46.16;99324.34;5004517;28;20337;-67
2021/09/02 09:24:59;;;;;;;10.43;5.63;;;;;;;25.75;47.00;99341.63;5004514;28;20040;-67
2021/09/02 09:27:38;;;;;;;11.98;6.18;;;;;;;25.28;45.38;99316.06;5004545;28;20122;-67
2021/09/02 09:30:16;;;;;;;12.05;5.95;;;;;;;24.36;46.17;99315.13;5004430;28;20026;-67
2021/09/02 09:32:41;;;;;;;9.52;5.60;;;;;;;24.91;45.23;99308.75;5004405;28;20026;-67
2021/09/02 09:35:11;;;;;;;8.63;5.53;;;;;;;24.51;45.66;99312.28;5004376;28;20144;-67
2021/09/02 09:37:36;;;;;;;14.65;5.82;;;;;;;24.48;46.23;99301.72;4986875;28;20030;-67
2021/09/02 09:40:21;;;;;;;9.70;5.82;;;;;;;24.36;47.89;99310.59;5004344;28;20023;-67
2021/09/02 09:43:03;;;;;;;8.23;5.10;;;;;;;25.12;45.52;99301.06;5004926;28;20018;-67
2021/09/02 09:45:39;;;;;;;9.70;5.63;;;;;;;25.24;46.00;99294.81;5004346;28;20018;-67
2021/09/02 09:48:30;;;;;;;7.65;5.30;;;;;;;25.03;45.31;99296.28;5004271;28;20026;-67
2021/09/02 09:51:18;;;;;;;9.82;5.20;;;;;;;25.77;44.43;99293.81;5004303;28;20077;-67
2021/09/02 09:53:51;;;;;;;9.70;5.47;;;;;;;25.22;44.50;99292.22;5004275;28;20209;-67
2021/09/02 09:56:20;;;;;;;8.90;5.90;;;;;;;24.97;43.62;99302.94;5004253;28;20214;-67
2021/09/02 09:58:47;;;;;;;9.73;5.38;;;;;;;24.70;45.76;99294.00;5004129;28;20037;-67
2021/09/02 10:01:13;;;;;;;8.02;5.00;;;;;;;25.20;44.74;99291.50;5004289;28;20306;-69
2021/09/02 10:03:40;;;;;;;9.95;5.97;;;;;;;24.56;44.91;99291.34;5014350;28;20053;-69
2021/09/02 10:06:07;;;;;;;14.60;5.95;;;;;;;24.82;44.01;99287.81;5027616;28;20214;-69
2021/09/02 10:08:38;;;;;;;11.77;5.85;;;;;;;25.15;43.87;99285.53;5027512;28;20018;-69
2021/09/02 10:11:06;;;;;;;10.57;5.63;;;;;;;25.10;43.17;99293.09;5027552;28;20332;-69
2021/09/02 10:13:32;;;;;;;8.77;5.43;;;;;;;25.52;43.10;99286.59;5027464;28;20025;-69
2021/09/02 10:15:59;;;;;;;10.40;5.55;;;;;;;25.00;44.93;99283.88;5027444;28;20216;-69
2021/09/02 10:18:27;;;;;;;10.20;5.82;;;;;;;25.28;43.23;99270.25;5027266;28;20194;-69
2021/09/02 10:20:54;;;;;;;9.57;5.55;;;;;;;25.14;44.03;99278.44;5027404;28;20049;-69
2021/09/02 10:23:24;;;;;;;13.88;5.28;;;;;;;25.42;42.55;99277.44;5027323;28;20042;-69
2021/09/02 10:25:50;;;;;;;10.53;5.27;;;;;;;24.99;43.39;99274.06;5027279;28;20253;-69
2021/09/02 10:28:30;;;;;;;7.53;4.82;;;;;;;24.76;43.23;99261.28;5009705;28;20024;-67
2021/09/02 10:31:19;;;;;;;10.35;5.53;;;;;;;24.98;43.32;99260.72;5027234;28;20260;-67
2021/09/02 10:33:46;;;;;;;9.50;5.20;;;;;;;24.75;43.55;99259.56;5027140;28;20025;-67
2021/09/02 10:36:11;;;;;;;10.93;5.72;;;;;;;24.82;44.78;99260.00;5027056;28;20257;-67
2021/09/02 10:38:44;;;;;;;10.98;5.30;;;;;;;24.86;44.96;99257.00;5026938;28;20025;-67
2021/09/02 10:41:11;;;;;;;11.15;5.65;;;;;;;25.49;45.06;99277.84;5026953;28;20028;-67
2021/09/02 10:43:46;;;;;;;8.95;5.10;;;;;;;24.99;44.14;99268.69;5026938;28;20048;-67
2021/09/02 10:46:38;;;;;;;13.07;5.70;;;;;;;25.40;43.88;99278.50;5026868;28;20334;-67
2021/09/02 10:49:15;;;;;;;;;;;;;;;25.66;42.98;99272.16;5027341;28;20093;-67
2021/09/02 10:51:43;;;;;;;9.80;5.30;;;;;;;25.34;42.94;99268.16;5026770;28;19905;-67
2021/09/02 10:54:10;;;;;;;10.00;5.05;;;;;;;25.09;41.87;99269.78;5026678;28;20026;-67
2021/09/02 10:56:56;;;;;;;9.20;5.43;;;;;;;25.02;43.77;99256.81;5026674;28;20343;-67
2021/09/02 10:59:50;;;;;;;10.73;4.80;;;;;;;25.03;42.97;99254.03;5026665;28;20284;-67
2021/09/02 11:02:15;;;;;;;9.40;5.57;;;;;;;24.80;45.08;99243.97;5026541;28;20316;-67
2021/09/02 11:04:41;;;;;;;9.65;5.28;;;;;;;24.73;44.03;99245.34;5026350;28;20046;-67
2021/09/02 11:07:07;;;;;;;10.27;5.43;;;;;;;24.68;45.14;99255.53;5026449;28;20309;-67
2021/09/02 11:09:40;;;;;;;11.75;5.18;;;;;;;24.58;45.08;99256.25;5026436;28;20017;-67
2021/09/02 11:12:11;;;;;;;9.05;5.00;;;;;;;24.85;45.28;99249.91;5026406;28;20377;-67
2021/09/02 11:14:43;;;;;;;9.80;4.85;;;;;;;24.82;43.79;99243.84;5026389;28;20092;-67
2021/09/02 11:17:09;;;;;;;11.63;5.55;;;;;;;24.43;44.14;99258.09;5025334;28;20032;-67
2021/09/02 11:19:37;;;;;;;8.73;5.03;;;;;;;24.13;45.31;99235.88;5026278;28;20194;-67
2021/09/02 11:22:07;;;;;;;11.00;5.20;;;;;;;24.41;45.29;99243.88;5026226;28;20025;-67
2021/09/02 11:24:39;;;;;;;10.02;4.55;;;;;;;24.60;44.82;99243.53;5026178;28;20092;-67
2021/09/02 11:27:05;;;;;;;8.63;5.20;;;;;;;24.28;45.16;99248.34;5026186;28;20084;-67
2021/09/02 11:29:31;;;;;;;8.73;5.05;;;;;;;24.17;45.03;99256.22;5026069;28;20033;-67